Aviation Digital Data Service (ADDS)

Output produced by METARs form (0704 UTC 19 February 2019)
found at http://www.aviationweather.gov/metar/data/
 
METAR text: MMMX 190645Z 14004KT 12SM SKC 18/01 A3028 NOSIG
Conditions at: MMMX (MEXICO CITY/LICE, MX) observed 0645 UTC 19 February 2019
Temperature: 18.0°C (64°F)
Dewpoint: 1.0°C (34°F) [RH = 32%]
Pressure (altimeter): 30.28 inches Hg (1025.5 mb)
Winds: from the SE (140 degrees) at 5 MPH (4 knots; 2.1 m/s)
Visibility: 12 miles (19 km)
Ceiling: at least 12,000 feet AGL
Clouds: clear skies
Weather: no significant weather observed at this time

METAR text: MMMX 190545Z 10005KT 12SM SKC 19/01 A3029 NOSIG RMK SLP050 52009 959
Conditions at: MMMX (MEXICO CITY/LICE, MX) observed 0545 UTC 19 February 2019
Temperature: 19.0°C (66°F)
Dewpoint: 1.0°C (34°F) [RH = 30%]
Pressure (altimeter): 30.29 inches Hg (1025.8 mb)
[Sea-level pressure: 1005.0 mb]
Winds: from the E (100 degrees) at 6 MPH (5 knots; 2.6 m/s)
Visibility: 12 miles (19 km)
Ceiling: at least 12,000 feet AGL
Clouds: clear skies
Weather: no significant weather observed at this time

METAR text: MMMX 190445Z 14010G20KT 12SM SKC 20/00 A3029 NOSIG
Conditions at: MMMX (MEXICO CITY/LICE, MX) observed 0445 UTC 19 February 2019
Temperature: 20.0°C (68°F)
Dewpoint: 0.0°C (32°F) [RH = 26%]
Pressure (altimeter): 30.29 inches Hg (1025.8 mb)
Winds: from the SE (140 degrees) at 12 MPH (10 knots; 5.1 m/s)
gusting to 23 MPH (20 knots; 10.3 m/s)
Visibility: 12 miles (19 km)
Ceiling: at least 12,000 feet AGL
Clouds: clear skies
Weather: no significant weather observed at this time

METAR text: MMMX 190345Z 13010KT 12SM SKC 21/00 A3029 NOSIG
Conditions at: MMMX (MEXICO CITY/LICE, MX) observed 0345 UTC 19 February 2019
Temperature: 21.0°C (70°F)
Dewpoint: 0.0°C (32°F) [RH = 25%]
Pressure (altimeter): 30.29 inches Hg (1025.8 mb)
Winds: from the SE (130 degrees) at 12 MPH (10 knots; 5.1 m/s)
Visibility: 12 miles (19 km)
Ceiling: at least 12,000 feet AGL
Clouds: clear skies
Weather: no significant weather observed at this time

METAR text: MMMX 190245Z 17006KT 12SM SKC 21/00 A3027 NOSIG RMK SLP072 52018 954
Conditions at: MMMX (MEXICO CITY/LICE, MX) observed 0245 UTC 19 February 2019
Temperature: 21.0°C (70°F)
Dewpoint: 0.0°C (32°F) [RH = 25%]
Pressure (altimeter): 30.27 inches Hg (1025.1 mb)
[Sea-level pressure: 1007.2 mb]
Winds: from the S (170 degrees) at 7 MPH (6 knots; 3.1 m/s)
Visibility: 12 miles (19 km)
Ceiling: at least 12,000 feet AGL
Clouds: clear skies
Weather: no significant weather observed at this time

METAR text: MMMX 190147Z 17006KT 12SM SKC 22/00 A3024 NOSIG
Conditions at: MMMX (MEXICO CITY/LICE, MX) observed 0147 UTC 19 February 2019
Temperature: 22.0°C (72°F)
Dewpoint: 0.0°C (32°F) [RH = 23%]
Pressure (altimeter): 30.24 inches Hg (1024.1 mb)
Winds: from the S (170 degrees) at 7 MPH (6 knots; 3.1 m/s)
Visibility: 12 miles (19 km)
Ceiling: at least 12,000 feet AGL
Clouds: clear skies
Weather: no significant weather observed at this time

METAR text: MMMX 190101Z 17012G22KT 12SM SKC 23/M01 A3022 NOSIG
Conditions at: MMMX (MEXICO CITY/LICE, MX) observed 0101 UTC 19 February 2019
Temperature: 23.0°C (73°F)
Dewpoint: -1.0°C (30°F) [RH = 20%]
Pressure (altimeter): 30.22 inches Hg (1023.5 mb)
Winds: from the S (170 degrees) at 14 MPH (12 knots; 6.2 m/s)
gusting to 25 MPH (22 knots; 11.3 m/s)
Visibility: 12 miles (19 km)
Ceiling: at least 12,000 feet AGL
Clouds: clear skies
Weather: no significant weather observed at this time

METAR text: MMMX 190044Z 17008KT 12SM SKC 25/M02 A3021 NOSIG
Conditions at: MMMX (MEXICO CITY/LICE, MX) observed 0044 UTC 19 February 2019
Temperature: 25.0°C (77°F)
Dewpoint: -2.0°C (28°F) [RH = 17%]
Pressure (altimeter): 30.21 inches Hg (1023.1 mb)
Winds: from the S (170 degrees) at 9 MPH (8 knots; 4.1 m/s)
Visibility: 12 miles (19 km)
Ceiling: at least 12,000 feet AGL
Clouds: clear skies
Weather: no significant weather observed at this time

METAR text: MMMX 182348Z 18010KT 12SM SKC 26/M05 A3020 NOSIG RMK SLP040 52001 901
Conditions at: MMMX (MEXICO CITY/LICE, MX) observed 2348 UTC 18 February 2019
Temperature: 26.0°C (79°F)
Dewpoint: -5.0°C (23°F) [RH = 13%]
Pressure (altimeter): 30.20 inches Hg (1022.8 mb)
[Sea-level pressure: 1004.0 mb]
Winds: from the S (180 degrees) at 12 MPH (10 knots; 5.1 m/s)
Visibility: 12 miles (19 km)
Ceiling: at least 12,000 feet AGL
Clouds: clear skies
Weather: no significant weather observed at this time

METAR text: MMMX 182302Z 16014KT 12SM SKC 27/M07 A3019 NOSIG RMK ISOL CU
Conditions at: MMMX (MEXICO CITY/LICE, MX) observed 2302 UTC 18 February 2019
Temperature: 27.0°C (81°F)
Dewpoint: -7.0°C (19°F) [RH = 10%]
Pressure (altimeter): 30.19 inches Hg (1022.4 mb)
Winds: from the SSE (160 degrees) at 16 MPH (14 knots; 7.2 m/s)
Visibility: 12 miles (19 km)
Ceiling: at least 12,000 feet AGL
Clouds: clear skies
Weather: no significant weather observed at this time

METAR text: MMMX 182245Z 17009KT 12SM SKC 29/M08 A3019 NOSIG RMK ISOL CU
Conditions at: MMMX (MEXICO CITY/LICE, MX) observed 2245 UTC 18 February 2019
Temperature: 29.0°C (84°F)
Dewpoint: -8.0°C (18°F) [RH =  8%]
Pressure (altimeter): 30.19 inches Hg (1022.4 mb)
Winds: from the S (170 degrees) at 10 MPH (9 knots; 4.6 m/s)
Visibility: 12 miles (19 km)
Ceiling: at least 12,000 feet AGL
Clouds: clear skies
Weather: no significant weather observed at this time

METAR text: MMMX 182149Z 19010KT 12SM SKC 30/M08 A3018 NOSIG RMK ISOL CU
Conditions at: MMMX (MEXICO CITY/LICE, MX) observed 2149 UTC 18 February 2019
Temperature: 30.0°C (86°F)
Dewpoint: -8.0°C (18°F) [RH =  8%]
Pressure (altimeter): 30.18 inches Hg (1022.1 mb)
Winds: from the S (190 degrees) at 12 MPH (10 knots; 5.1 m/s)
Visibility: 12 miles (19 km)
Ceiling: at least 12,000 feet AGL
Clouds: clear skies
Weather: no significant weather observed at this time

METAR text: MMMX 182050Z 18010KT 12SM SKC 30/M10 A3019 NOSIG RMK SLP005 57028 903 HZY ISOL CU
Conditions at: MMMX (MEXICO CITY/LICE, MX) observed 2050 UTC 18 February 2019
Temperature: 30.0°C (86°F)
Dewpoint: -10.0°C (14°F) [RH =  7%]
Pressure (altimeter): 30.19 inches Hg (1022.4 mb)
[Sea-level pressure: 1000.5 mb]
Winds: from the S (180 degrees) at 12 MPH (10 knots; 5.1 m/s)
Visibility: 12 miles (19 km)
Ceiling: at least 12,000 feet AGL
Clouds: clear skies
Weather: no significant weather observed at this time

METAR text: MMMX 181945Z 14009G21KT 12SM SKC 30/M09 A3022 NOSIG RMK ISOL CU
Conditions at: MMMX (MEXICO CITY/LICE, MX) observed 1945 UTC 18 February 2019
Temperature: 30.0°C (86°F)
Dewpoint: -9.0°C (16°F) [RH =  7%]
Pressure (altimeter): 30.22 inches Hg (1023.5 mb)
Winds: from the SE (140 degrees) at 10 MPH (9 knots; 4.6 m/s)
gusting to 24 MPH (21 knots; 10.8 m/s)
Visibility: 12 miles (19 km)
Ceiling: at least 12,000 feet AGL
Clouds: clear skies
Weather: no significant weather observed at this time

METAR text: MMMX 181925Z 19006KT 12SM SKC 29/M05 A3023 NOSIG RMK HZY ISOL CU
Conditions at: MMMX (MEXICO CITY/LICE, MX) observed 1925 UTC 18 February 2019
Temperature: 29.0°C (84°F)
Dewpoint: -5.0°C (23°F) [RH = 11%]
Pressure (altimeter): 30.23 inches Hg (1023.8 mb)
Winds: from the S (190 degrees) at 7 MPH (6 knots; 3.1 m/s)
Visibility: 12 miles (19 km)
Ceiling: at least 12,000 feet AGL
Clouds: clear skies
Weather: no significant weather observed at this time

METAR text: MMMX 181844Z 19005KT 10SM SKC 27/M01 A3026 NOSIG RMK HZY ISOL CU
Conditions at: MMMX (MEXICO CITY/LICE, MX) observed 1844 UTC 18 February 2019
Temperature: 27.0°C (81°F)
Dewpoint: -1.0°C (30°F) [RH = 16%]
Pressure (altimeter): 30.26 inches Hg (1024.8 mb)
Winds: from the S (190 degrees) at 6 MPH (5 knots; 2.6 m/s)
Visibility: 10 or more miles (16+ km)
Ceiling: at least 12,000 feet AGL
Clouds: clear skies
Weather: no significant weather observed at this time

METAR text: MMMX 181745Z 12007KT 10SM SKC 26/01 A3030 NOSIG RMK SLP050 57012 907 HZY
Conditions at: MMMX (MEXICO CITY/LICE, MX) observed 1745 UTC 18 February 2019
Temperature: 26.0°C (79°F)
Dewpoint: 1.0°C (34°F) [RH = 20%]
Pressure (altimeter): 30.30 inches Hg (1026.2 mb)
[Sea-level pressure: 1005.0 mb]
Winds: from the ESE (120 degrees) at 8 MPH (7 knots; 3.6 m/s)
Visibility: 10 or more miles (16+ km)
Ceiling: at least 12,000 feet AGL
Clouds: clear skies
Weather: no significant weather observed at this time

METAR text: MMMX 181729Z 13010KT 10SM SKC 25/00 A3031 NOSIG RMK HZY
Conditions at: MMMX (MEXICO CITY/LICE, MX) observed 1729 UTC 18 February 2019
Temperature: 25.0°C (77°F)
Dewpoint: 0.0°C (32°F) [RH = 19%]
Pressure (altimeter): 30.31 inches Hg (1026.5 mb)
Winds: from the SE (130 degrees) at 12 MPH (10 knots; 5.1 m/s)
Visibility: 10 or more miles (16+ km)
Ceiling: at least 12,000 feet AGL
Clouds: clear skies
Weather: no significant weather observed at this time

METAR text: MMMX 181641Z 07003KT 10SM SKC 22/02 A3033 NOSIG RMK HZY
Conditions at: MMMX (MEXICO CITY/LICE, MX) observed 1641 UTC 18 February 2019
Temperature: 22.0°C (72°F)
Dewpoint: 2.0°C (36°F) [RH = 27%]
Pressure (altimeter): 30.33 inches Hg (1027.2 mb)
Winds: from the ENE (70 degrees) at 3 MPH (3 knots; 1.5 m/s)
Visibility: 10 or more miles (16+ km)
Ceiling: at least 12,000 feet AGL
Clouds: clear skies
Weather: no significant weather observed at this time

METAR text: MMMX 181636Z 08005KT 10SM SKC 22/02 A3033 NOSIG RMK HZY
Conditions at: MMMX (MEXICO CITY/LICE, MX) observed 1636 UTC 18 February 2019
Temperature: 22.0°C (72°F)
Dewpoint: 2.0°C (36°F) [RH = 27%]
Pressure (altimeter): 30.33 inches Hg (1027.2 mb)
Winds: from the E (80 degrees) at 6 MPH (5 knots; 2.6 m/s)
Visibility: 10 or more miles (16+ km)
Ceiling: at least 12,000 feet AGL
Clouds: clear skies
Weather: no significant weather observed at this time

METAR text: MMMX 181548Z 08003KT 10SM SKC 20/03 A3034 NOSIG RMK HZY
Conditions at: MMMX (MEXICO CITY/LICE, MX) observed 1548 UTC 18 February 2019
Temperature: 20.0°C (68°F)
Dewpoint: 3.0°C (37°F) [RH = 32%]
Pressure (altimeter): 30.34 inches Hg (1027.5 mb)
Winds: from the E (80 degrees) at 3 MPH (3 knots; 1.5 m/s)
Visibility: 10 or more miles (16+ km)
Ceiling: at least 12,000 feet AGL
Clouds: clear skies
Weather: no significant weather observed at this time

METAR text: MMMX 181532Z 06004KT 10SM SKC 19/03 A3033 NOSIG RMK HZY
Conditions at: MMMX (MEXICO CITY/LICE, MX) observed 1532 UTC 18 February 2019
Temperature: 19.0°C (66°F)
Dewpoint: 3.0°C (37°F) [RH = 34%]
Pressure (altimeter): 30.33 inches Hg (1027.2 mb)
Winds: from the ENE (60 degrees) at 5 MPH (4 knots; 2.1 m/s)
Visibility: 10 or more miles (16+ km)
Ceiling: at least 12,000 feet AGL
Clouds: clear skies
Weather: no significant weather observed at this time

METAR text: MMMX 181445Z 09004KT 12SM SKC 16/02 A3032 NOSIG RMK SLP099 52014 910
Conditions at: MMMX (MEXICO CITY/LICE, MX) observed 1445 UTC 18 February 2019
Temperature: 16.0°C (61°F)
Dewpoint: 2.0°C (36°F) [RH = 39%]
Pressure (altimeter): 30.32 inches Hg (1026.8 mb)
[Sea-level pressure: 1009.9 mb]
Winds: from the E (90 degrees) at 5 MPH (4 knots; 2.1 m/s)
Visibility: 12 miles (19 km)
Ceiling: at least 12,000 feet AGL
Clouds: clear skies
Weather: no significant weather observed at this time

METAR text: MMMX 181410Z 00000KT 12SM SKC 15/03 A3032 NOSIG
Conditions at: MMMX (MEXICO CITY/LICE, MX) observed 1410 UTC 18 February 2019
Temperature: 15.0°C (59°F)
Dewpoint: 3.0°C (37°F) [RH = 44%]
Pressure (altimeter): 30.32 inches Hg (1026.8 mb)
Winds: calm
Visibility: 12 miles (19 km)
Ceiling: at least 12,000 feet AGL
Clouds: clear skies
Weather: no significant weather observed at this time

METAR text: MMMX 181344Z 08005KT 12SM SKC 13/02 A3031 NOSIG
Conditions at: MMMX (MEXICO CITY/LICE, MX) observed 1344 UTC 18 February 2019
Temperature: 13.0°C (55°F)
Dewpoint: 2.0°C (36°F) [RH = 47%]
Pressure (altimeter): 30.31 inches Hg (1026.5 mb)
Winds: from the E (80 degrees) at 6 MPH (5 knots; 2.6 m/s)
Visibility: 12 miles (19 km)
Ceiling: at least 12,000 feet AGL
Clouds: clear skies
Weather: no significant weather observed at this time

METAR text: MMMX 181245Z 08005KT 10SM SKC 12/02 A3029 NOSIG
Conditions at: MMMX (MEXICO CITY/LICE, MX) observed 1245 UTC 18 February 2019
Temperature: 12.0°C (54°F)
Dewpoint: 2.0°C (36°F) [RH = 50%]
Pressure (altimeter): 30.29 inches Hg (1025.8 mb)
Winds: from the E (80 degrees) at 6 MPH (5 knots; 2.6 m/s)
Visibility: 10 or more miles (16+ km)
Ceiling: at least 12,000 feet AGL
Clouds: clear skies
Weather: no significant weather observed at this time

METAR text: MMMX 181146Z 05002KT 10SM SKC 13/02 A3027 NOSIG RMK SLP072 57003 913
Conditions at: MMMX (MEXICO CITY/LICE, MX) observed 1146 UTC 18 February 2019
Temperature: 13.0°C (55°F)
Dewpoint: 2.0°C (36°F) [RH = 47%]
Pressure (altimeter): 30.27 inches Hg (1025.1 mb)
[Sea-level pressure: 1007.2 mb]
Winds: from the NE (50 degrees) at 2 MPH (2 knots; 1.0 m/s)
Visibility: 10 or more miles (16+ km)
Ceiling: at least 12,000 feet AGL
Clouds: clear skies
Weather: no significant weather observed at this time

METAR text: MMMX 181042Z 27002KT 10SM SKC 15/03 A3027 NOSIG
Conditions at: MMMX (MEXICO CITY/LICE, MX) observed 1042 UTC 18 February 2019
Temperature: 15.0°C (59°F)
Dewpoint: 3.0°C (37°F) [RH = 44%]
Pressure (altimeter): 30.27 inches Hg (1025.1 mb)
Winds: from the W (270 degrees) at 2 MPH (2 knots; 1.0 m/s)
Visibility: 10 or more miles (16+ km)
Ceiling: at least 12,000 feet AGL
Clouds: clear skies
Weather: no significant weather observed at this time

METAR text: MMMX 180944Z 23004KT 10SM SKC 16/03 A3027 NOSIG
Conditions at: MMMX (MEXICO CITY/LICE, MX) observed 0944 UTC 18 February 2019
Temperature: 16.0°C (61°F)
Dewpoint: 3.0°C (37°F) [RH = 42%]
Pressure (altimeter): 30.27 inches Hg (1025.1 mb)
Winds: from the SW (230 degrees) at 5 MPH (4 knots; 2.1 m/s)
Visibility: 10 or more miles (16+ km)
Ceiling: at least 12,000 feet AGL
Clouds: clear skies
Weather: no significant weather observed at this time

METAR text: MMMX 180845Z 23002KT 10SM SKC 17/04 A3028 NOSIG RMK SLP055 57008 916
Conditions at: MMMX (MEXICO CITY/LICE, MX) observed 0845 UTC 18 February 2019
Temperature: 17.0°C (63°F)
Dewpoint: 4.0°C (39°F) [RH = 42%]
Pressure (altimeter): 30.28 inches Hg (1025.5 mb)
[Sea-level pressure: 1005.5 mb]
Winds: from the SW (230 degrees) at 2 MPH (2 knots; 1.0 m/s)
Visibility: 10 or more miles (16+ km)
Ceiling: at least 12,000 feet AGL
Clouds: clear skies
Weather: no significant weather observed at this time

METAR text: MMMX 180742Z 18004KT 10SM SKC 18/02 A3029 NOSIG
Conditions at: MMMX (MEXICO CITY/LICE, MX) observed 0742 UTC 18 February 2019
Temperature: 18.0°C (64°F)
Dewpoint: 2.0°C (36°F) [RH = 34%]
Pressure (altimeter): 30.29 inches Hg (1025.8 mb)
Winds: from the S (180 degrees) at 5 MPH (4 knots; 2.1 m/s)
Visibility: 10 or more miles (16+ km)
Ceiling: at least 12,000 feet AGL
Clouds: clear skies
Weather: no significant weather observed at this time

METAR text: MMMX 180645Z 14004KT 10SM SKC 18/03 A3030 NOSIG
Conditions at: MMMX (MEXICO CITY/LICE, MX) observed 0645 UTC 18 February 2019
Temperature: 18.0°C (64°F)
Dewpoint: 3.0°C (37°F) [RH = 37%]
Pressure (altimeter): 30.30 inches Hg (1026.2 mb)
Winds: from the SE (140 degrees) at 5 MPH (4 knots; 2.1 m/s)
Visibility: 10 or more miles (16+ km)
Ceiling: at least 12,000 feet AGL
Clouds: clear skies
Weather: no significant weather observed at this time

METAR text: MMMX 180546Z 18004KT 10SM SKC 19/04 A3031 NOSIG RMK SLP062 52014 918
Conditions at: MMMX (MEXICO CITY/LICE, MX) observed 0546 UTC 18 February 2019
Temperature: 19.0°C (66°F)
Dewpoint: 4.0°C (39°F) [RH = 37%]
Pressure (altimeter): 30.31 inches Hg (1026.5 mb)
[Sea-level pressure: 1006.2 mb]
Winds: from the S (180 degrees) at 5 MPH (4 knots; 2.1 m/s)
Visibility: 10 or more miles (16+ km)
Ceiling: at least 12,000 feet AGL
Clouds: clear skies
Weather: no significant weather observed at this time

METAR text: MMMX 180445Z 13005KT 10SM SKC 20/03 A3030 NOSIG
Conditions at: MMMX (MEXICO CITY/LICE, MX) observed 0445 UTC 18 February 2019
Temperature: 20.0°C (68°F)
Dewpoint: 3.0°C (37°F) [RH = 32%]
Pressure (altimeter): 30.30 inches Hg (1026.2 mb)
Winds: from the SE (130 degrees) at 6 MPH (5 knots; 2.6 m/s)
Visibility: 10 or more miles (16+ km)
Ceiling: at least 12,000 feet AGL
Clouds: clear skies
Weather: no significant weather observed at this time

METAR text: MMMX 180345Z 12007KT 10SM SKC 20/03 A3028 NOSIG
Conditions at: MMMX (MEXICO CITY/LICE, MX) observed 0345 UTC 18 February 2019
Temperature: 20.0°C (68°F)
Dewpoint: 3.0°C (37°F) [RH = 32%]
Pressure (altimeter): 30.28 inches Hg (1025.5 mb)
Winds: from the ESE (120 degrees) at 8 MPH (7 knots; 3.6 m/s)
Visibility: 10 or more miles (16+ km)
Ceiling: at least 12,000 feet AGL
Clouds: clear skies
Weather: no significant weather observed at this time

METAR text: MMMX 180243Z 16008KT 10SM SKC 21/05 A3026 NOSIG RMK SLP060 52023 910 HZY
Conditions at: MMMX (MEXICO CITY/LICE, MX) observed 0243 UTC 18 February 2019
Temperature: 21.0°C (70°F)
Dewpoint: 5.0°C (41°F) [RH = 35%]
Pressure (altimeter): 30.26 inches Hg (1024.8 mb)
[Sea-level pressure: 1006.0 mb]
Winds: from the SSE (160 degrees) at 9 MPH (8 knots; 4.1 m/s)
Visibility: 10 or more miles (16+ km)
Ceiling: at least 12,000 feet AGL
Clouds: clear skies
Weather: no significant weather observed at this time

METAR text: MMMX 180147Z 17012KT 10SM SKC 22/06 A3022 NOSIG RMK HZY
Conditions at: MMMX (MEXICO CITY/LICE, MX) observed 0147 UTC 18 February 2019
Temperature: 22.0°C (72°F)
Dewpoint: 6.0°C (43°F) [RH = 35%]
Pressure (altimeter): 30.22 inches Hg (1023.5 mb)
Winds: from the S (170 degrees) at 14 MPH (12 knots; 6.2 m/s)
Visibility: 10 or more miles (16+ km)
Ceiling: at least 12,000 feet AGL
Clouds: clear skies
Weather: no significant weather observed at this time

METAR text: MMMX 180140Z 16015KT 10SM SKC 23/06 A3022 NOSIG RMK HZY
Conditions at: MMMX (MEXICO CITY/LICE, MX) observed 0140 UTC 18 February 2019
Temperature: 23.0°C (73°F)
Dewpoint: 6.0°C (43°F) [RH = 33%]
Pressure (altimeter): 30.22 inches Hg (1023.5 mb)
Winds: from the SSE (160 degrees) at 17 MPH (15 knots; 7.7 m/s)
Visibility: 10 or more miles (16+ km)
Ceiling: at least 12,000 feet AGL
Clouds: clear skies
Weather: no significant weather observed at this time

METAR text: MMMX 180048Z 17006KT 10SM SKC 25/06 A3019 NOSIG RMK HZY
Conditions at: MMMX (MEXICO CITY/LICE, MX) observed 0048 UTC 18 February 2019
Temperature: 25.0°C (77°F)
Dewpoint: 6.0°C (43°F) [RH = 30%]
Pressure (altimeter): 30.19 inches Hg (1022.4 mb)
Winds: from the S (170 degrees) at 7 MPH (6 knots; 3.1 m/s)
Visibility: 10 or more miles (16+ km)
Ceiling: at least 12,000 feet AGL
Clouds: clear skies
Weather: no significant weather observed at this time

METAR text: MMMX 172352Z 18010KT 10SM SKC 26/06 A3017 NOSIG RMK SLP030 52003 909 HZY ISOL CU
Conditions at: MMMX (MEXICO CITY/LICE, MX) observed 2352 UTC 17 February 2019
Temperature: 26.0°C (79°F)
Dewpoint: 6.0°C (43°F) [RH = 28%]
Pressure (altimeter): 30.17 inches Hg (1021.8 mb)
[Sea-level pressure: 1003.0 mb]
Winds: from the S (180 degrees) at 12 MPH (10 knots; 5.1 m/s)
Visibility: 10 or more miles (16+ km)
Ceiling: at least 12,000 feet AGL
Clouds: clear skies
Weather: no significant weather observed at this time

METAR text: MMMX 172247Z 12016KT 10SM FEW020 27/03 A3016 NOSIG RMK 8/200 HZY
Conditions at: MMMX (MEXICO CITY/LICE, MX) observed 2247 UTC 17 February 2019
Temperature: 27.0°C (81°F)
Dewpoint: 3.0°C (37°F) [RH = 21%]
Pressure (altimeter): 30.16 inches Hg (1021.4 mb)
Winds: from the ESE (120 degrees) at 18 MPH (16 knots; 8.2 m/s)
Visibility: 10 or more miles (16+ km)
Ceiling: at least 12,000 feet AGL
Clouds: few clouds at 2000 feet AGL
Weather: no significant weather observed at this time

METAR text: MMMX 172151Z 09010KT 10SM FEW020 28/03 A3015 NOSIG RMK 8/100 HZY
Conditions at: MMMX (MEXICO CITY/LICE, MX) observed 2151 UTC 17 February 2019
Temperature: 28.0°C (82°F)
Dewpoint: 3.0°C (37°F) [RH = 20%]
Pressure (altimeter): 30.15 inches Hg (1021.1 mb)
Winds: from the E (90 degrees) at 12 MPH (10 knots; 5.1 m/s)
Visibility: 10 or more miles (16+ km)
Ceiling: at least 12,000 feet AGL
Clouds: few clouds at 2000 feet AGL
Weather: no significant weather observed at this time

METAR text: MMMX 172050Z 08008KT 10SM SKC 28/03 A3017 NOSIG RMK SLP010 57024 905 HZY ISOL CU
Conditions at: MMMX (MEXICO CITY/LICE, MX) observed 2050 UTC 17 February 2019
Temperature: 28.0°C (82°F)
Dewpoint: 3.0°C (37°F) [RH = 20%]
Pressure (altimeter): 30.17 inches Hg (1021.8 mb)
[Sea-level pressure: 1001.0 mb]
Winds: from the E (80 degrees) at 9 MPH (8 knots; 4.1 m/s)
Visibility: 10 or more miles (16+ km)
Ceiling: at least 12,000 feet AGL
Clouds: clear skies
Weather: no significant weather observed at this time

METAR text: MMMX 171951Z 11004KT 11SM SKC 27/02 A3020 NOSIG RMK ISOL CU
Conditions at: MMMX (MEXICO CITY/LICE, MX) observed 1951 UTC 17 February 2019
Temperature: 27.0°C (81°F)
Dewpoint: 2.0°C (36°F) [RH = 20%]
Pressure (altimeter): 30.20 inches Hg (1022.8 mb)
Winds: from the ESE (110 degrees) at 5 MPH (4 knots; 2.1 m/s)
Visibility: 11 miles (18 km)
Ceiling: at least 12,000 feet AGL
Clouds: clear skies
Weather: no significant weather observed at this time

Forecast for: MMMX (MEXICO CITY/LICE, MX)
Text: TAF MMMX 190420Z 1906/2012 13008KT P6SM SKC TX30/1921Z TN13/1912Z
Forecast period: 0600 to 1800 UTC 19 February 2019
Forecast type: FROM: standard forecast or significant change
Winds: from the SE (130 degrees) at 9 MPH (8 knots; 4.1 m/s)
Visibility: 6 or more miles 10+ km)
Clouds: clear skies
Weather: no significant weather forecast for this period
Text: FM191800 22014KT P6SM SCT250
Forecast period: 1800 UTC 19 February 2019 to 0600 UTC 20 February 2019
Forecast type: FROM: standard forecast or significant change
Winds: from the SW (220 degrees) at 16 MPH (14 knots; 7.2 m/s)
Visibility: 6 or more miles 10+ km)
Ceiling: at least 12,000 feet AGL
Clouds: scattered clouds at 25000 feet AGL
Weather: no significant weather forecast for this period
Text: FM200600 12008KT P6SM SKC
Forecast period: 0600 to 1200 UTC 20 February 2019
Forecast type: FROM: standard forecast or significant change
Winds: from the ESE (120 degrees) at 9 MPH (8 knots; 4.1 m/s)
Visibility: 6 or more miles 10+ km)
Clouds: clear skies
Weather: no significant weather forecast for this period